Terminal Aerodrome Forecast
Issued by NWS Albany, NY

Home | Current Version | Previous Version | Text Only | Print | Product List | Glossary On
Versions: 1 2 3 4 5 6 7 8 9 10 11 12 13 14 15 16 17
000
FTUS41 KALY 201700 RRA
TAFGFL
TAF
KGFL 201749Z 2018/2118 20007KT P6SM OVC035
     FM202000 20009KT P6SM BKN040
     FM210000 20006KT P6SM SCT050
     FM210400 19005KT 5SM BR SCT007 BKN015
     FM210700 19005KT 3SM BR BKN007 OVC015
     FM211400 19007KT P6SM BKN015 OVC025
     FM211600 19010KT P6SM BKN025 BKN050=

USA.gov is the U.S. government's official web portal to all federal, state and local government web resources and services.